Time;durP1;ratioP1;P1;durP2;ratioP2;P2;SDS_P1;SDS_P2;PMS_P1;PMS_P2;Temp;Humidity;BMP_temperature;BMP_pressure;BME280_temperature;BME280_humidity;BME280_pressure;Samples;Min_cycle;Max_cycle;Signal;HPM_P1;HPM_P2
2022/04/04 00:01:03;;;;;;;5.57;3.70;;;2.40;99.90;;;;;;4861004;29;20053;-65
2022/04/04 00:03:29;;;;;;;6.45;3.72;;;2.40;99.90;;;;;;4879200;29;20181;-66
2022/04/04 00:05:55;;;;;;;4.68;3.40;;;2.40;99.90;;;;;;4858741;29;20948;-66
2022/04/04 00:08:20;;;;;;;4.78;3.80;;;2.40;99.90;;;;;;4857300;29;20065;-65
2022/04/04 00:10:46;;;;;;;6.75;4.63;;;2.30;99.90;;;;;;4860931;29;20064;-66
2022/04/04 00:13:11;;;;;;;8.32;3.78;;;2.40;99.90;;;;;;4861447;29;20065;-66
2022/04/04 00:15:37;;;;;;;5.65;3.70;;;2.40;99.90;;;;;;4876153;29;20084;-66
2022/04/04 00:18:12;;;;;;;7.65;4.10;;;2.40;99.90;;;;;;4861428;29;20493;-65
2022/04/04 00:20:39;;;;;;;9.13;3.95;;;2.40;99.90;;;;;;4860326;29;20064;-65
2022/04/04 00:23:06;;;;;;;6.15;3.90;;;2.40;99.90;;;;;;4878114;29;20522;-66
2022/04/04 00:25:32;;;;;;;6.85;4.18;;;2.40;99.90;;;;;;4879269;29;20053;-65
2022/04/04 00:27:57;;;;;;;7.07;4.25;;;3.00;99.90;;;;;;4869172;29;20059;-65
2022/04/04 00:30:23;;;;;;;5.65;4.20;;;2.50;99.90;;;;;;4858282;29;20439;-66
2022/04/04 00:32:48;;;;;;;6.47;3.70;;;2.50;99.90;;;;;;4859243;29;20061;-65
2022/04/04 00:35:14;;;;;;;6.38;4.00;;;2.50;99.90;;;;;;4877635;29;20136;-66
2022/04/04 00:37:40;;;;;;;10.00;4.28;;;2.50;99.90;;;;;;4859875;29;20053;-65
2022/04/04 00:40:07;;;;;;;7.15;4.30;;;2.50;99.90;;;;;;4860529;29;20156;-67
2022/04/04 00:42:33;;;;;;;6.78;4.30;;;2.50;99.90;;;;;;4859853;29;20065;-66
2022/04/04 00:44:58;;;;;;;5.60;3.67;;;2.50;99.90;;;;;;4863032;29;20398;-64
2022/04/04 00:47:24;;;;;;;7.25;4.28;;;2.50;99.90;;;;;;4860873;29;20049;-65
2022/04/04 00:49:49;;;;;;;6.72;4.18;;;2.50;99.90;;;;;;4861883;29;20053;-66
2022/04/04 00:52:16;;;;;;;6.97;4.30;;;2.50;99.90;;;;;;4860842;29;20091;-66
2022/04/04 00:54:41;;;;;;;7.25;4.32;;;2.60;99.90;;;;;;4860906;29;20068;-66
2022/04/04 00:57:08;;;;;;;9.02;4.35;;;2.50;99.90;;;;;;4860522;29;20061;-67
2022/04/04 00:59:34;;;;;;;5.57;4.68;;;2.60;99.90;;;;;;4860345;29;20061;-67
2022/04/04 01:02:00;;;;;;;6.53;4.50;;;2.60;99.90;;;;;;4861109;29;20057;-66
2022/04/04 01:04:26;;;;;;;9.40;5.10;;;2.60;99.90;;;;;;4860676;29;20060;-65
2022/04/04 01:06:52;;;;;;;7.38;4.90;;;2.70;99.90;;;;;;4859709;29;20056;-66
2022/04/04 01:09:17;;;;;;;8.13;5.10;;;2.70;99.90;;;;;;4859226;29;20053;-66
2022/04/04 01:12:08;;;;;;;10.70;6.40;;;2.90;99.90;;;;;;4875095;29;20065;-67
2022/04/04 01:14:51;;;;;;;10.25;5.38;;;2.90;99.90;;;;;;4864635;29;20068;-67
2022/04/04 01:17:21;;;;;;;8.48;5.75;;;3.00;99.90;;;;;;4876020;29;20080;-65
2022/04/04 01:19:47;;;;;;;10.18;6.55;;;3.00;99.90;;;;;;4875723;29;20064;-65
2022/04/04 01:22:14;;;;;;;10.30;7.30;;;3.00;99.90;;;;;;4862006;29;20045;-66
2022/04/04 01:24:41;;;;;;;9.82;6.68;;;3.10;99.90;;;;;;4862817;29;20132;-67
2022/04/04 01:27:08;;;;;;;12.40;7.05;;;3.10;99.90;;;;;;4862461;29;20193;-66
2022/04/04 01:29:35;;;;;;;8.75;6.53;;;3.20;99.90;;;;;;4881172;29;20056;-66
2022/04/04 01:32:01;;;;;;;9.77;6.88;;;3.20;99.90;;;;;;4862589;29;20443;-67
2022/04/04 01:34:26;;;;;;;9.90;7.45;;;3.20;99.90;;;;;;4882646;29;20060;-65
2022/04/04 01:36:52;;;;;;;10.88;8.30;;;3.20;99.90;;;;;;4864120;29;20049;-67
2022/04/04 01:39:18;;;;;;;11.07;8.43;;;3.30;99.90;;;;;;4864640;29;20139;-66
2022/04/04 01:41:44;;;;;;;13.88;9.38;;;3.30;99.90;;;;;;4879495;29;20682;-67
2022/04/04 01:44:10;;;;;;;11.02;8.55;;;3.30;99.90;;;;;;4865063;29;20518;-65
2022/04/04 01:46:36;;;;;;;10.57;8.27;;;3.30;99.90;;;;;;4879894;29;20140;-66
2022/04/04 01:49:04;;;;;;;13.15;9.23;;;3.40;99.90;;;;;;4864444;29;20136;-65
2022/04/04 01:51:31;;;;;;;12.45;9.20;;;3.40;99.90;;;;;;4863893;29;20053;-67
2022/04/04 01:53:58;;;;;;;12.90;8.73;;;3.40;99.90;;;;;;4864715;29;20517;-67
2022/04/04 01:56:23;;;;;;;12.80;9.20;;;3.40;99.90;;;;;;4853084;29;20992;-65
2022/04/04 01:58:50;;;;;;;14.02;9.20;;;3.40;99.90;;;;;;4863502;29;20049;-66
2022/04/04 02:01:23;;;;;;;14.07;9.60;;;3.40;99.90;;;;;;4862711;29;20096;-66
2022/04/04 02:03:51;;;;;;;11.57;9.40;;;3.40;99.90;;;;;;4881648;29;20135;-65
2022/04/04 02:06:20;;;;;;;10.88;8.35;;;3.50;99.90;;;;;;4860884;29;20057;-65
2022/04/04 02:08:48;;;;;;;14.00;9.27;;;3.50;99.90;;;;;;4880212;29;20051;-67
2022/04/04 02:11:15;;;;;;;12.63;9.48;;;3.60;99.90;;;;;;4880180;29;20486;-65
2022/04/04 02:13:42;;;;;;;14.38;9.02;;;3.60;99.90;;;;;;4863913;29;20520;-66
2022/04/04 02:16:07;;;;;;;14.75;8.80;;;3.60;99.90;;;;;;4863354;29;20080;-68
2022/04/04 02:18:34;;;;;;;13.63;10.60;;;3.70;99.90;;;;;;4855674;29;20085;-65
2022/04/04 02:21:00;;;;;;;13.50;9.57;;;3.70;99.90;;;;;;4865108;29;20049;-65
2022/04/04 02:23:26;;;;;;;16.45;10.00;;;3.80;99.90;;;;;;4863475;29;20093;-67
2022/04/04 02:25:55;;;;;;;17.25;10.18;;;3.80;99.90;;;;;;4880734;29;20203;-67
2022/04/04 02:28:21;;;;;;;12.75;9.40;;;3.80;99.90;;;;;;4862843;29;20076;-66
2022/04/04 02:30:49;;;;;;;13.38;9.65;;;3.80;99.90;;;;;;4863971;29;20061;-65
2022/04/04 02:33:16;;;;;;;14.35;10.00;;;3.90;99.90;;;;;;4863009;29;20141;-68
2022/04/04 02:35:42;;;;;;;15.90;10.20;;;3.90;99.90;;;;;;4880947;29;20049;-66
2022/04/04 02:38:08;;;;;;;15.25;10.23;;;3.90;99.90;;;;;;4879612;29;20053;-66
2022/04/04 02:40:35;;;;;;;16.23;10.15;;;3.90;99.90;;;;;;4879075;29;20056;-66
2022/04/04 02:43:01;;;;;;;15.90;10.93;;;4.00;99.90;;;;;;4863424;29;20053;-66
2022/04/04 02:45:27;;;;;;;14.88;9.55;;;4.00;99.90;;;;;;4863512;29;20108;-66
2022/04/04 02:47:53;;;;;;;14.15;10.05;;;4.10;99.90;;;;;;4861156;29;20080;-68
2022/04/04 02:50:18;;;;;;;16.17;10.40;;;4.10;99.90;;;;;;4861768;29;20350;-65
2022/04/04 02:52:44;;;;;;;16.70;9.90;;;4.10;99.90;;;;;;4864311;29;20515;-65
2022/04/04 02:57:55;;;;;;;14.85;10.30;;;4.10;99.90;;;;;;4858911;29;20056;-66
2022/04/04 03:00:23;;;;;;;19.08;10.05;;;4.10;99.90;;;;;;4878604;29;20105;-66
2022/04/04 03:02:49;;;;;;;16.90;10.65;;;4.10;99.90;;;;;;4880452;29;20049;-67
2022/04/04 03:05:15;;;;;;;18.83;11.13;;;4.20;99.90;;;;;;4878333;29;20108;-67
2022/04/04 03:07:41;;;;;;;18.77;11.15;;;4.20;99.90;;;;;;4863627;29;20095;-66
2022/04/04 03:10:07;;;;;;;19.13;11.52;;;4.20;99.90;;;;;;4861718;29;20070;-65
2022/04/04 03:12:38;;;;;;;17.38;10.98;;;4.30;99.90;;;;;;4878006;29;20067;-67
2022/04/04 03:15:04;;;;;;;16.15;11.00;;;4.30;99.90;;;;;;4861827;29;20064;-66
2022/04/04 03:17:30;;;;;;;16.52;10.02;;;4.40;99.90;;;;;;4877637;29;20060;-65
2022/04/04 03:19:55;;;;;;;16.10;10.15;;;4.40;99.90;;;;;;4863122;29;20053;-67
2022/04/04 03:22:21;;;;;;;15.43;11.27;;;4.50;99.90;;;;;;4860979;29;20049;-66
2022/04/04 03:24:46;;;;;;;16.48;11.00;;;4.50;99.90;;;;;;4863505;29;20200;-66
2022/04/04 03:27:13;;;;;;;18.08;11.57;;;4.50;99.90;;;;;;4860784;29;20194;-66
2022/04/04 03:29:40;;;;;;;18.92;11.15;;;4.50;99.90;;;;;;4875482;29;20183;-66
2022/04/04 03:32:06;;;;;;;17.42;11.15;;;4.60;99.90;;;;;;4860279;29;20116;-66
2022/04/04 03:34:32;;;;;;;15.55;11.38;;;4.60;99.90;;;;;;4860792;29;20061;-66
2022/04/04 03:36:58;;;;;;;18.67;11.02;;;4.60;99.90;;;;;;4860864;29;20092;-66
2022/04/04 03:39:23;;;;;;;14.70;11.07;;;4.60;99.90;;;;;;4878064;29;20045;-67
2022/04/04 03:41:49;;;;;;;16.95;11.25;;;4.60;99.90;;;;;;4862694;29;20064;-66
2022/04/04 03:44:15;;;;;;;14.25;10.85;;;4.70;99.90;;;;;;4862224;29;20053;-67
2022/04/04 03:46:40;;;;;;;14.80;10.10;;;4.70;99.90;;;;;;4852306;29;20069;-67
2022/04/04 03:49:06;;;;;;;16.48;10.55;;;4.70;99.90;;;;;;4858448;29;20045;-67
2022/04/04 03:51:32;;;;;;;13.88;11.05;;;4.80;99.90;;;;;;4861089;29;20084;-67
2022/04/04 03:53:58;;;;;;;16.73;10.27;;;4.80;99.90;;;;;;4860600;29;20051;-66
2022/04/04 03:56:24;;;;;;;16.05;10.45;;;4.80;99.90;;;;;;4863122;29;20060;-68
2022/04/04 03:58:52;;;;;;;18.27;11.45;;;4.80;99.90;;;;;;4862241;29;20053;-67
2022/04/04 04:01:18;;;;;;;13.57;9.98;;;4.90;99.90;;;;;;4878579;29;20434;-66
2022/04/04 04:03:44;;;;;;;17.20;10.57;;;4.90;99.90;;;;;;4860043;29;20132;-65
2022/04/04 04:06:12;;;;;;;13.88;10.50;;;4.90;99.90;;;;;;4860421;29;20132;-68
2022/04/04 04:08:43;;;;;;;14.43;11.57;;;4.90;99.90;;;;;;4861705;29;20055;-66
2022/04/04 04:11:10;;;;;;;15.05;10.90;;;4.90;99.90;;;;;;4879514;29;20064;-67
2022/04/04 04:13:37;;;;;;;17.95;11.95;;;4.90;99.90;;;;;;4875585;29;20057;-66
2022/04/04 04:16:03;;;;;;;13.68;10.57;;;4.90;99.90;;;;;;4878332;29;20467;-67
2022/04/04 04:18:29;;;;;;;15.63;10.00;;;4.90;99.90;;;;;;4878192;29;20065;-65
2022/04/04 04:20:55;;;;;;;15.38;10.30;;;4.90;99.90;;;;;;4862304;29;20116;-66
2022/04/04 04:23:22;;;;;;;17.45;11.38;;;4.90;99.90;;;;;;4877555;29;20470;-67
2022/04/04 04:25:48;;;;;;;13.80;11.23;;;4.90;99.90;;;;;;4862769;29;20060;-66
2022/04/04 04:28:13;;;;;;;13.70;10.82;;;4.90;99.90;;;;;;4860619;29;20053;-68
2022/04/04 04:30:40;;;;;;;15.18;11.15;;;5.00;99.90;;;;;;4861822;29;20055;-67
2022/04/04 04:33:07;;;;;;;15.68;10.73;;;5.00;99.90;;;;;;4860771;29;20136;-67
2022/04/04 04:35:33;;;;;;;15.48;10.40;;;5.00;99.90;;;;;;4877895;29;20183;-67
2022/04/04 04:38:00;;;;;;;14.57;11.63;;;5.00;99.90;;;;;;4879068;29;20446;-67
2022/04/04 04:40:27;;;;;;;13.88;11.65;;;4.90;99.90;;;;;;4861343;29;20052;-67
2022/04/04 04:42:54;;;;;;;14.48;11.25;;;4.90;99.90;;;;;;4860915;29;20092;-66
2022/04/04 04:45:20;;;;;;;16.42;11.55;;;4.90;99.90;;;;;;4877746;29;20211;-66
2022/04/04 04:47:47;;;;;;;19.88;12.15;;;4.90;99.90;;;;;;4877144;29;20060;-66
2022/04/04 04:50:16;;;;;;;17.38;11.50;;;4.90;99.90;;;;;;4877975;29;20057;-67
2022/04/04 04:52:43;;;;;;;18.50;11.55;;;4.90;99.90;;;;;;4877803;29;20131;-66
2022/04/04 04:55:09;;;;;;;16.38;10.48;;;4.90;99.90;;;;;;4878579;29;20477;-66
2022/04/04 04:57:35;;;;;;;15.77;11.02;;;4.90;99.90;;;;;;4877893;29;20117;-67
2022/04/04 05:00:03;;;;;;;16.20;11.90;;;4.90;99.90;;;;;;4860883;29;20057;-66
2022/04/04 05:02:29;;;;;;;13.73;11.32;;;4.90;99.90;;;;;;4862557;29;20471;-66
2022/04/04 05:04:55;;;;;;;15.80;12.13;;;4.90;99.90;;;;;;4862380;29;20112;-66
2022/04/04 05:07:20;;;;;;;14.95;11.10;;;4.90;99.90;;;;;;4861218;29;20053;-66
2022/04/04 05:09:46;;;;;;;15.80;11.48;;;4.90;99.90;;;;;;4858259;29;20561;-65
2022/04/04 05:12:12;;;;;;;19.75;11.90;;;4.90;99.90;;;;;;4865567;29;20147;-68
2022/04/04 05:14:41;;;;;;;16.38;12.35;;;4.90;99.90;;;;;;4861264;29;20053;-67
2022/04/04 05:17:06;;;;;;;16.25;13.18;;;4.90;99.90;;;;;;4855702;29;20108;-67
2022/04/04 05:19:33;;;;;;;16.55;13.57;;;4.90;99.90;;;;;;4878698;29;20424;-66
2022/04/04 05:22:01;;;;;;;15.85;13.73;;;4.90;99.90;;;;;;4854451;29;20049;-65
2022/04/04 05:24:27;;;;;;;18.30;13.23;;;5.00;99.90;;;;;;4859417;29;20077;-67
2022/04/04 05:26:54;;;;;;;16.45;11.73;;;5.00;99.90;;;;;;4862245;29;20548;-67
2022/04/04 05:29:20;;;;;;;17.20;11.98;;;5.00;99.90;;;;;;4845210;29;20128;-68
2022/04/04 05:31:45;;;;;;;14.30;11.90;;;5.00;99.90;;;;;;4860993;29;20157;-67
2022/04/04 05:34:14;;;;;;;15.00;11.98;;;5.00;99.90;;;;;;4861129;29;20049;-66
2022/04/04 05:36:42;;;;;;;14.82;11.27;;;5.00;99.90;;;;;;4840718;29;20142;-67
2022/04/04 05:39:08;;;;;;;15.05;11.80;;;5.00;99.90;;;;;;4854873;29;20137;-68
2022/04/04 05:41:36;;;;;;;17.17;11.82;;;5.00;99.90;;;;;;4854718;29;20057;-66
2022/04/04 05:44:03;;;;;;;17.10;10.98;;;5.00;99.90;;;;;;4879475;29;20125;-66
2022/04/04 05:46:28;;;;;;;17.08;14.02;;;5.00;99.90;;;;;;4862674;29;20184;-65
2022/04/04 05:48:54;;;;;;;16.55;11.65;;;5.00;99.90;;;;;;4862165;29;20108;-66
2022/04/04 05:51:19;;;;;;;16.10;11.25;;;5.00;99.90;;;;;;4860887;29;20061;-66
2022/04/04 05:53:46;;;;;;;13.73;10.40;;;5.00;99.90;;;;;;4859052;29;20041;-66
2022/04/04 05:56:12;;;;;;;15.73;12.10;;;5.10;99.90;;;;;;4863321;29;20522;-68
2022/04/04 05:58:38;;;;;;;15.45;10.68;;;5.10;99.90;;;;;;4861670;29;20133;-65
2022/04/04 06:01:04;;;;;;;14.98;11.18;;;5.10;99.90;;;;;;4830200;29;20445;-67
2022/04/04 06:03:30;;;;;;;15.63;11.52;;;5.50;99.90;;;;;;4852459;29;20132;-66
2022/04/04 06:05:58;;;;;;;14.68;11.63;;;5.10;99.90;;;;;;4837652;29;20442;-67
2022/04/04 06:08:33;;;;;;;15.95;10.68;;;5.00;99.90;;;;;;4855711;29;20057;-67
2022/04/04 06:11:19;;;;;;;12.63;10.38;;;5.00;99.90;;;;;;4833226;29;20062;-67
2022/04/04 06:13:51;;;;;;;13.43;11.35;;;5.00;99.90;;;;;;4851707;29;20091;-68
2022/04/04 06:16:17;;;;;;;15.38;10.10;;;5.00;99.90;;;;;;4872332;29;20110;-67
2022/04/04 06:18:50;;;;;;;17.27;11.48;;;5.00;99.90;;;;;;4853672;29;20049;-65
2022/04/04 06:21:34;;;;;;;16.25;11.32;;;4.90;99.90;;;;;;4839275;29;20504;-66
2022/04/04 06:23:59;;;;;;;13.10;10.52;;;4.90;99.90;;;;;;4862862;29;20050;-67
2022/04/04 06:26:26;;;;;;;16.27;11.43;;;5.00;99.90;;;;;;4851672;29;20121;-66
2022/04/04 06:28:57;;;;;;;15.65;11.15;;;5.00;99.90;;;;;;4852849;29;20525;-65
2022/04/04 06:31:24;;;;;;;16.33;11.05;;;5.00;99.90;;;;;;4856360;29;20068;-67
2022/04/04 06:33:50;;;;;;;14.85;11.00;;;5.00;99.90;;;;;;4861368;29;20125;-66
2022/04/04 06:39:37;;;;;;;14.80;11.10;;;4.90;99.90;;;;;;4842823;29;20072;-68
2022/04/04 06:42:03;;;;;;;15.68;11.55;;;4.90;99.90;;;;;;4857818;29;20102;-67
2022/04/04 06:44:29;;;;;;;13.90;10.55;;;4.90;99.90;;;;;;4861042;29;20045;-67
2022/04/04 06:46:56;;;;;;;14.63;11.15;;;4.90;99.90;;;;;;4861745;29;20060;-68
2022/04/04 06:49:22;;;;;;;14.85;12.07;;;4.80;99.90;;;;;;4861571;29;20053;-65
2022/04/04 06:51:51;;;;;;;16.98;11.27;;;4.80;99.90;;;;;;4852537;29;20153;-68
2022/04/04 06:54:18;;;;;;;16.35;12.25;;;4.80;99.90;;;;;;4850425;29;20058;-68
2022/04/04 06:56:46;;;;;;;14.27;12.25;;;4.80;99.90;;;;;;4848563;29;20475;-65
2022/04/04 06:59:38;;;;;;;17.35;11.52;;;4.80;99.90;;;;;;4852731;29;20084;-67
2022/04/04 07:02:30;;;;;;;16.65;12.38;;;4.70;99.90;;;;;;4854938;29;20049;-67
2022/04/04 07:04:56;;;;;;;12.87;11.40;;;4.70;99.90;;;;;;4840457;29;20125;-67
2022/04/04 07:07:22;;;;;;;15.77;13.23;;;4.70;99.90;;;;;;4854942;29;20543;-66
2022/04/04 07:10:14;;;;;;;15.35;12.35;;;4.70;99.90;;;;;;4851026;29;20128;-68
2022/04/04 07:12:43;;;;;;;17.20;11.80;;;4.70;99.90;;;;;;4851638;29;20147;-66
2022/04/04 07:15:12;;;;;;;14.90;11.73;;;4.70;99.90;;;;;;4852920;29;20129;-67
2022/04/04 07:25:18;;;;;;;19.58;13.20;;;4.70;99.90;;;;;;4873383;29;20127;-67
2022/04/04 07:27:45;;;;;;;16.58;12.27;;;4.70;99.90;;;;;;4859424;29;20083;-67
2022/04/04 07:30:13;;;;;;;17.65;13.18;;;4.70;99.90;;;;;;4860291;29;20060;-67
2022/04/04 07:32:40;;;;;;;16.30;13.10;;;4.70;99.90;;;;;;4859877;29;20061;-68
2022/04/04 07:35:09;;;;;;;18.95;13.43;;;4.60;99.90;;;;;;4845842;29;20502;-67
2022/04/04 07:37:35;;;;;;;19.35;13.93;;;4.80;99.90;;;;;;4861232;29;20052;-66
2022/04/04 07:40:01;;;;;;;17.27;14.45;;;4.60;99.90;;;;;;4863274;29;20546;-66
2022/04/04 07:42:31;;;;;;;18.33;14.10;;;4.80;99.90;;;;;;5154911;27;1175010;-67
2022/04/04 07:44:57;;;;;;;21.40;14.88;;;4.90;99.90;;;;;;5154508;27;20042;-68
2022/04/04 07:47:23;;;;;;;23.48;16.38;;;4.90;99.90;;;;;;5153913;27;20448;-66
2022/04/04 07:49:50;;;;;;;19.80;15.15;;;4.90;99.90;;;;;;5154347;27;20054;-66
2022/04/04 07:52:16;;;;;;;19.60;14.98;;;4.80;99.90;;;;;;5155430;27;20424;-67
2022/04/04 07:54:42;;;;;;;18.98;15.35;;;4.90;99.90;;;;;;5156712;27;20074;-66
2022/04/04 07:57:08;;;;;;;22.00;17.00;;;4.80;99.90;;;;;;5153292;27;20113;-68
2022/04/04 07:59:33;;;;;;;21.95;16.15;;;4.80;99.90;;;;;;5153489;27;20502;-67
2022/04/04 08:01:59;;;;;;;23.35;16.75;;;4.80;99.90;;;;;;5152772;27;20402;-69
2022/04/04 08:04:24;;;;;;;22.98;17.15;;;4.80;99.90;;;;;;5154973;27;20046;-66
2022/04/04 08:06:50;;;;;;;23.67;16.75;;;4.80;99.90;;;;;;5160402;27;20046;-67
2022/04/04 08:09:16;;;;;;;25.50;17.02;;;4.90;99.90;;;;;;5157182;27;20054;-68
2022/04/04 08:11:45;;;;;;;23.13;17.85;;;4.80;99.90;;;;;;5172367;27;20050;-66
2022/04/04 08:14:11;;;;;;;23.17;18.17;;;4.80;99.90;;;;;;5133006;27;20054;-67
2022/04/04 08:16:38;;;;;;;28.83;18.80;;;4.90;99.90;;;;;;5152678;27;20081;-68
2022/04/04 08:19:04;;;;;;;21.73;16.98;;;4.90;99.90;;;;;;5153119;27;20077;-70
2022/04/04 08:21:30;;;;;;;23.02;17.17;;;4.70;99.90;;;;;;5135797;27;20055;-68
2022/04/04 08:23:56;;;;;;;21.17;17.50;;;4.90;99.90;;;;;;5181916;27;20050;-68
2022/04/04 08:26:54;;;;;;;22.13;17.75;;;4.90;99.90;;;;;;5166214;27;20068;-66
2022/04/04 08:29:21;;;;;;;21.25;16.17;;;4.90;99.90;;;;;;5132302;27;20047;-67
2022/04/04 08:31:47;;;;;;;20.95;15.82;;;5.00;99.90;;;;;;5115377;27;20053;-67
2022/04/04 08:34:13;;;;;;;18.30;14.77;;;5.00;99.90;;;;;;5137263;27;20524;-67
2022/04/04 08:36:44;;;;;;;21.92;14.50;;;5.00;99.90;;;;;;5145143;27;20113;-67
2022/04/04 08:39:10;;;;;;;20.20;14.98;;;5.40;99.90;;;;;;5132586;27;20040;-68
2022/04/04 08:41:40;;;;;;;19.98;14.30;;;4.90;99.90;;;;;;5150092;27;20460;-67
2022/04/04 08:44:18;;;;;;;16.33;14.35;;;5.00;99.90;;;;;;5135006;27;20045;-69
2022/04/04 08:46:47;;;;;;;15.93;14.00;;;5.10;99.90;;;;;;5151963;27;20050;-67
2022/04/04 08:49:39;;;;;;;18.67;13.90;;;5.10;99.90;;;;;;5135503;27;20498;-67
2022/04/04 08:52:33;;;;;;;16.98;14.45;;;5.10;99.90;;;;;;5131246;27;20039;-67
2022/04/04 08:55:01;;;;;;;18.45;14.02;;;3.70;99.90;;;;;;5157465;27;20447;-68
2022/04/04 08:57:30;;;;;;;14.60;12.63;;;5.10;99.90;;;;;;5121795;27;20390;-68
2022/04/04 08:59:56;;;;;;;18.90;13.77;;;5.10;99.90;;;;;;5137189;27;20107;-68
2022/04/04 09:02:21;;;;;;;17.95;12.95;;;5.30;99.90;;;;;;5135825;27;20042;-69
2022/04/04 09:04:51;;;;;;;19.67;12.57;;;5.20;99.90;;;;;;5138727;27;20125;-67
2022/04/04 09:07:18;;;;;;;12.88;10.82;;;5.20;99.90;;;;;;5138478;27;20424;-68
2022/04/04 09:09:50;;;;;;;14.18;9.32;;;5.40;99.90;;;;;;5157386;27;20097;-66
2022/04/04 09:12:19;;;;;;;12.50;8.52;;;5.30;99.90;;;;;;5126778;27;20039;-68
2022/04/04 09:14:49;;;;;;;10.38;8.20;;;5.30;99.90;;;;;;5136660;27;20049;-67
2022/04/04 09:17:17;;;;;;;8.35;6.95;;;5.40;99.90;;;;;;5127925;27;20141;-67
2022/04/04 09:19:52;;;;;;;8.93;6.47;;;5.40;99.90;;;;;;5138636;27;20188;-67
2022/04/04 09:22:24;;;;;;;9.52;6.20;;;6.10;99.90;;;;;;5119967;27;20066;-67
2022/04/04 09:24:55;;;;;;;8.30;5.90;;;5.40;99.90;;;;;;5138261;27;20482;-66
2022/04/04 09:31:07;;;;;;;9.38;6.65;;;5.40;99.90;;;;;;5155022;27;20469;-65
2022/04/04 09:33:40;;;;;;;8.18;6.00;;;5.50;99.90;;;;;;5129166;27;20098;-67
2022/04/04 09:36:07;;;;;;;6.57;5.55;;;5.30;99.90;;;;;;5158883;27;20061;-67
2022/04/04 09:38:34;;;;;;;6.97;4.70;;;5.50;99.90;;;;;;5167903;27;20043;-68
2022/04/04 09:41:18;;;;;;;5.90;4.70;;;5.50;99.90;;;;;;5138156;27;20055;-66
2022/04/04 09:43:56;;;;;;;5.65;4.68;;;5.50;99.90;;;;;;5137811;27;20459;-69
2022/04/04 09:46:22;;;;;;;6.20;4.72;;;5.50;99.90;;;;;;5135554;27;20146;-66
2022/04/04 09:49:00;;;;;;;7.95;4.15;;;5.50;99.90;;;;;;5131622;27;20043;-66
2022/04/04 09:51:47;;;;;;;5.68;5.07;;;5.50;99.90;;;;;;5152782;27;20050;-66
2022/04/04 09:54:29;;;;;;;7.28;5.35;;;5.60;99.90;;;;;;5135658;27;20051;-66
2022/04/04 09:57:16;;;;;;;6.57;4.90;;;5.60;99.90;;;;;;5157414;27;20042;-67
2022/04/04 09:59:42;;;;;;;4.75;4.15;;;5.60;99.90;;;;;;5157347;27;20047;-66
2022/04/04 10:02:13;;;;;;;5.68;5.03;;;6.60;99.90;;;;;;5134592;27;20167;-68
2022/04/04 10:04:45;;;;;;;6.13;4.97;;;5.60;99.90;;;;;;5117124;27;20542;-67
2022/04/04 10:07:22;;;;;;;7.03;5.25;;;6.20;99.90;;;;;;5120889;27;20035;-67
2022/04/04 10:09:52;;;;;;;5.88;5.03;;;6.00;99.90;;;;;;5107067;27;20050;-67
2022/04/04 10:12:23;;;;;;;5.97;4.88;;;6.80;99.90;;;;;;5099433;27;20051;-67
2022/04/04 10:14:50;;;;;;;4.78;4.35;;;5.60;99.90;;;;;;5134721;27;20046;-67
2022/04/04 10:17:19;;;;;;;6.85;4.60;;;5.80;99.90;;;;;;5123691;27;20050;-68
2022/04/04 10:19:46;;;;;;;5.35;4.85;;;5.90;99.90;;;;;;5099902;27;20082;-67
2022/04/04 10:22:19;;;;;;;5.90;4.32;;;5.70;99.90;;;;;;5114595;27;20441;-68
2022/04/04 10:24:58;;;;;;;6.75;4.90;;;5.80;99.90;;;;;;5131969;27;20047;-66
2022/04/04 10:27:35;;;;;;;6.32;5.00;;;5.60;99.90;;;;;;5134676;27;20047;-67
2022/04/04 10:30:10;;;;;;;7.28;5.35;;;5.80;99.90;;;;;;5134359;27;20061;-67
2022/04/04 10:32:51;;;;;;;5.38;4.88;;;5.80;99.90;;;;;;5136858;27;20051;-66
2022/04/04 10:35:20;;;;;;;5.40;4.90;;;5.80;99.90;;;;;;5118704;27;20047;-66
2022/04/04 10:37:46;;;;;;;7.70;5.05;;;5.70;99.90;;;;;;5117109;27;20054;-68
2022/04/04 10:40:29;;;;;;;6.32;5.38;;;5.90;99.90;;;;;;5132795;27;20050;-66
2022/04/04 10:43:13;;;;;;;7.30;5.32;;;5.90;99.90;;;;;;5132301;27;20134;-66
2022/04/04 10:45:59;;;;;;;5.30;4.80;;;5.90;99.90;;;;;;5125740;27;20051;-65
2022/04/04 10:48:29;;;;;;;6.50;5.25;;;5.70;99.90;;;;;;5133066;27;20051;-67
2022/04/04 10:51:20;;;;;;;7.30;4.95;;;5.90;99.90;;;;;;5128674;27;20128;-67
2022/04/04 10:53:57;;;;;;;6.38;5.35;;;5.90;99.90;;;;;;5115980;27;20122;-66
2022/04/04 10:56:31;;;;;;;6.75;5.70;;;5.80;99.90;;;;;;5134325;27;20116;-68
2022/04/04 10:59:15;;;;;;;6.45;5.60;;;5.80;99.90;;;;;;5133442;27;20059;-67
2022/04/04 11:01:56;;;;;;;8.50;6.00;;;6.00;99.90;;;;;;5133340;27;20078;-67
2022/04/04 11:04:31;;;;;;;7.95;5.90;;;6.00;99.90;;;;;;5130176;27;20035;-68
2022/04/04 11:10:07;;;;;;;7.32;5.25;;;5.70;99.90;;;;;;5133086;27;20506;-66
2022/04/04 11:12:55;;;;;;;6.30;5.30;;;5.80;99.90;;;;;;5115448;27;20440;-66
2022/04/04 11:16:08;;;;;;;6.55;5.47;;;6.10;99.90;;;;;;5121579;27;20039;-66
2022/04/04 11:18:53;;;;;;;5.07;4.57;;;6.20;99.90;;;;;;5128374;27;20080;-68
2022/04/04 11:21:41;;;;;;;6.00;4.55;;;6.20;99.90;;;;;;5110792;27;20122;-66
2022/04/04 11:24:09;;;;;;;5.22;4.72;;;6.40;99.90;;;;;;5115236;27;20118;-68
2022/04/04 11:26:35;;;;;;;5.95;4.45;;;6.30;99.90;;;;;;5126583;27;20035;-67
2022/04/04 11:29:02;;;;;;;5.82;4.35;;;6.00;99.90;;;;;;5130761;27;20057;-67
2022/04/04 11:31:28;;;;;;;5.65;4.30;;;6.30;99.90;;;;;;5113538;28;20048;-66
2022/04/04 11:33:54;;;;;;;5.30;4.80;;;6.40;99.90;;;;;;5114665;28;20127;-66
2022/04/04 11:36:32;;;;;;;5.20;4.05;;;6.50;99.90;;;;;;5131863;27;20217;-68
2022/04/04 11:39:07;;;;;;;5.10;4.50;;;6.90;99.90;;;;;;5097178;28;20048;-69
2022/04/04 11:41:46;;;;;;;5.55;3.90;;;6.80;99.90;;;;;;5127885;28;20048;-66
2022/04/04 11:47:23;;;;;;;4.53;3.55;;;6.50;99.90;;;;;;5133613;28;20058;-68
2022/04/04 11:50:05;;;;;;;3.88;3.47;;;7.50;99.90;;;;;;5115176;28;20051;-66
2022/04/04 11:52:53;;;;;;;5.97;3.45;;;6.10;99.90;;;;;;5132264;28;20082;-68
2022/04/04 11:55:20;;;;;;;5.10;3.30;;;6.70;99.90;;;;;;5132888;27;20039;-66
2022/04/04 11:57:49;;;;;;;3.22;2.70;;;6.70;99.90;;;;;;5130959;28;20074;-67
2022/04/04 12:00:23;;;;;;;3.30;3.00;;;6.70;99.90;;;;;;5131745;28;20036;-66
2022/04/04 12:03:04;;;;;;;3.92;2.90;;;7.00;99.90;;;;;;5132753;27;20131;-68
2022/04/04 12:05:33;;;;;;;4.40;2.90;;;7.20;99.90;;;;;;5114788;28;20047;-66
2022/04/04 12:08:03;;;;;;;4.30;3.90;;;7.00;99.90;;;;;;5114806;28;20043;-69
2022/04/04 12:10:43;;;;;;;5.28;3.60;;;6.80;99.90;;;;;;5132386;28;20493;-68
2022/04/04 12:13:21;;;;;;;3.35;3.05;;;6.60;99.90;;;;;;5114676;28;20047;-67
2022/04/04 12:16:12;;;;;;;3.65;3.28;;;6.90;99.90;;;;;;5133138;27;20070;-68
2022/04/04 12:18:42;;;;;;;3.75;2.50;;;6.70;99.90;;;;;;5115221;28;20047;-69
2022/04/04 12:21:08;;;;;;;4.13;2.85;;;7.30;99.90;;;;;;5132525;28;20039;-67
2022/04/04 12:26:23;;;;;;;2.72;2.53;;;7.10;99.90;;;;;;5133387;28;20100;-68
2022/04/04 12:28:48;;;;;;;3.17;2.90;;;7.10;99.90;;;;;;5135640;27;20051;-69
2022/04/04 12:31:27;;;;;;;3.30;2.50;;;7.10;99.90;;;;;;5135695;27;20066;-70
2022/04/04 12:34:14;;;;;;;4.03;3.10;;;7.50;99.90;;;;;;5137410;27;20123;-67
2022/04/04 12:37:05;;;;;;;2.95;2.65;;;6.90;99.90;;;;;;5119023;27;20054;-68
2022/04/04 12:39:32;;;;;;;2.40;2.30;;;7.30;99.90;;;;;;5116462;27;20065;-69
2022/04/04 12:41:57;;;;;;;2.15;2.05;;;7.80;99.90;;;;;;5118028;27;20065;-69
2022/04/04 12:44:28;;;;;;;3.67;2.50;;;6.50;99.90;;;;;;5118343;27;20122;-67
2022/04/04 12:47:09;;;;;;;4.20;3.80;;;6.90;99.90;;;;;;5118632;27;20035;-67
2022/04/04 12:53:00;;;;;;;2.63;2.42;;;7.40;99.90;;;;;;5135840;27;20431;-67
2022/04/04 12:55:46;;;;;;;2.10;1.88;;;6.90;99.90;;;;;;5118212;27;20100;-66
2022/04/04 12:58:28;;;;;;;2.60;1.88;;;8.70;99.90;;;;;;5095946;28;20047;-70
2022/04/04 13:01:08;;;;;;;2.35;1.67;;;6.00;99.90;;;;;;5080435;27;20204;-67
2022/04/04 13:03:46;;;;;;;2.20;2.00;;;6.80;99.90;;;;;;5118449;27;20042;-70
2022/04/04 13:06:16;;;;;;;2.10;1.90;;;7.30;99.90;;;;;;5117415;27;20035;-68
2022/04/04 13:08:56;;;;;;;2.13;1.70;;;7.50;99.90;;;;;;5115389;27;20039;-68
2022/04/04 13:11:27;;;;;;;3.45;2.00;;;7.40;99.90;;;;;;5118477;27;20059;-68
2022/04/04 13:14:06;;;;;;;2.08;1.90;;;8.10;99.90;;;;;;5118403;27;20056;-69
2022/04/04 13:16:40;;;;;;;1.67;1.58;;;7.50;99.90;;;;;;5117903;27;20118;-68
2022/04/04 13:19:17;;;;;;;2.13;1.90;;;8.20;99.90;;;;;;5118371;27;20390;-67
2022/04/04 13:21:48;;;;;;;1.92;1.83;;;8.70;99.90;;;;;;5118221;27;20043;-67
2022/04/04 13:24:23;;;;;;;1.58;1.48;;;7.50;99.90;;;;;;5134920;27;20049;-67
2022/04/04 13:26:50;;;;;;;1.50;1.40;;;7.70;99.90;;;;;;5117516;27;20122;-69
2022/04/04 13:29:22;;;;;;;1.70;1.60;;;7.60;99.90;;;;;;5115512;27;20053;-69